Wanamaker, Indiana
Current Conditions -  °F | °C
As of 1:54 AM on Thursday 27 Nov 2014 (Local Time) from KMQJ Reporting Station
Overcast Overcast  
Wind Chill: 17°   Ceiling: 1800
Heat Index: 28°   Visibility: 10mi
Dew Point: 18°   Wind: 14mph
Humidity: 64%   Direction: 350°N
Pressure: 30.12"   Gusts: NA
Location:  39.7221°N, 86.0007°W
Report Text: KMQJ 270654Z AUTO 35012KT 10SM OVC018 M02/M08 A3012 RMK AO1
Loading
Personal Weather Stations






























Interactive Weather Map New forecast layout! Learn more

10-Day Weather Forecast

Advertisements
Track Severe Weather on mobile